Den Helder, Netherlands
Current Conditions -  °F | °C
As of 2:11 PM on Friday 24 Oct 2014 (Local Time) from EHKD Reporting Station
Drizzle Drizzle  
Wind Chill: 54°   Ceiling: 600
Heat Index: 54°   Visibility: 2.8mi
Dew Point: 54°   Wind: 16mph
Humidity: 100%   Direction: 190°S
Pressure: 29.97"   Gusts: NA
Location:  52.96°N, 4.76°E
Report Text: EHKD 241211Z AUTO 19014KT 4500 DZ SCT004 OVC006 12/12 Q1015 YLO 19014KT 8000 -DZRA SCT006 OVC008 TEMPO FEW004 SCT005 OVC007
Loading
Personal Weather Stations






























Interactive Weather Map
Tropical Storm Tracking
New forecast layout! Learn more

10-Day Weather Forecast

Advertisements
Track Severe Weather on mobile